»·PEaware :: N437PD L70-L35

N437PD :: L70-L35

FLIGHT INFORMATION

Flight Status: Arrived
Operator: Privately registered:
United States
More flights under this callsign
Pilot: Michael F. (10210)
Aircraft: PIPER PA-28 CHEROKEE ARCHER
(P28A)
More flights by this aircraft type
Origin: L70 Agua Dulce
United States
Destination: L35 Big Bear City
United States
More flights between these airports :: More routes between these airports
Route: PMD V137 ARRAN
File this flight plan on PilotEdge
Remarks:
Altitude:
(Current/Filed)
11,500ft
Speed:
(Current/Filed)
130kts
Departed: 23-Dec-17 06:01 PM
Arrived: 23-Dec-17 06:44 PM
Distance/Time
Traveled:
74nm/0:43
Distance/Time
To Go:
Arrived

Flight Plot

Page will automatically refresh every two minutes.

Flight plan parsing failed; only flown route is shown


Map Options




Map Legend


Flown Route
Filed Route
Departure Airport
Arrival Airport
Navaid (VOR, NDB)
Fix

Horizontal Profiles

Position Reports

Time Latitude Longitude Heading Altitude Ground
Speed
23-Dec-17 17:47 34.503502 -118.314282 143 2605ft 0kts
23-Dec-17 17:48 34.503502 -118.314282 143 2605ft 0kts
23-Dec-17 17:49 34.503502 -118.314282 143 2605ft 0kts
23-Dec-17 17:50 34.503502 -118.314282 143 2605ft 0kts
23-Dec-17 17:51 34.503502 -118.314282 143 2605ft 0kts
23-Dec-17 17:52 34.503502 -118.314282 143 2605ft 0kts
23-Dec-17 17:53 34.503502 -118.314282 143 2605ft 0kts
23-Dec-17 17:54 34.503502 -118.314282 143 2605ft 0kts
23-Dec-17 17:55 34.503502 -118.314282 143 2605ft 0kts
23-Dec-17 17:56 34.503499 -118.314279 143 2605ft 0kts
23-Dec-17 17:57 34.503496 -118.314277 143 2605ft 0kts
23-Dec-17 17:58 34.503493 -118.314274 143 2605ft 0kts
23-Dec-17 17:59 34.503490 -118.314271 143 2605ft 0kts
23-Dec-17 18:00 34.503487 -118.314268 143 2605ft 0kts
23-Dec-17 18:01 34.503484 -118.314266 143 2605ft 0kts
23-Dec-17 18:02 34.503481 -118.314263 143 2605ft 0kts
23-Dec-17 18:03 34.504368 -118.312628 52 2605ft 11kts
23-Dec-17 18:04 34.506464 -118.309259 57 2605ft 5kts
23-Dec-17 18:05 34.506484 -118.309159 96 2605ft 0kts
23-Dec-17 18:06 34.506483 -118.309146 96 2605ft 0kts
23-Dec-17 18:07 34.504953 -118.310842 232 2605ft 57kts
23-Dec-17 18:08 34.491036 -118.332111 202 3590ft 83kts
23-Dec-17 18:09 34.483866 -118.311006 58 4732ft 90kts
23-Dec-17 18:10 34.497588 -118.284962 49 6091ft 95kts
23-Dec-17 18:11 34.515773 -118.261301 41 7131ft 97kts
23-Dec-17 18:12 34.535518 -118.237007 38 8361ft 105kts
23-Dec-17 18:13 34.555356 -118.211309 45 9254ft 107kts
23-Dec-17 18:14 34.573081 -118.181667 55 10000ft 110kts
23-Dec-17 18:15 34.587448 -118.148034 55 10702ft 114kts
23-Dec-17 18:16 34.604419 -118.116031 43 11382ft 111kts
23-Dec-17 18:17 34.620776 -118.078293 59 11535ft 134kts
23-Dec-17 18:18 34.619410 -118.035006 120 11537ft 144kts
23-Dec-17 18:19 34.599171 -117.992766 119 11540ft 145kts
23-Dec-17 18:20 34.579133 -117.949932 119 11536ft 146kts
23-Dec-17 18:21 34.559892 -117.906693 117 11532ft 145kts
23-Dec-17 18:22 34.539973 -117.861583 118 11542ft 154kts
23-Dec-17 18:23 34.519395 -117.816634 118 11541ft 151kts
23-Dec-17 18:24 34.498996 -117.772931 119 11509ft 148kts
23-Dec-17 18:25 34.478697 -117.730488 119 11507ft 143kts
23-Dec-17 18:26 34.457759 -117.686357 119 11514ft 154kts
23-Dec-17 18:27 34.436316 -117.640861 119 11522ft 155kts
23-Dec-17 18:28 34.416034 -117.596936 118 11511ft 146kts
23-Dec-17 18:29 34.395548 -117.552587 118 11510ft 153kts
23-Dec-17 18:30 34.375341 -117.508424 117 11488ft 148kts
23-Dec-17 18:31 34.356260 -117.465476 116 11479ft 143kts
23-Dec-17 18:32 34.337367 -117.422894 117 11477ft 142kts
23-Dec-17 18:33 34.317375 -117.381082 118 11476ft 144kts
23-Dec-17 18:34 34.297943 -117.338809 118 11472ft 143kts
23-Dec-17 18:35 34.278534 -117.296429 117 11475ft 143kts
23-Dec-17 18:36 34.259359 -117.254225 118 11483ft 142kts
23-Dec-17 18:37 34.239873 -117.212720 118 11354ft 137kts
23-Dec-17 18:38 34.221561 -117.173231 108 10603ft 131kts
23-Dec-17 18:39 34.222308 -117.130193 79 9871ft 126kts
23-Dec-17 18:40 34.226483 -117.088807 79 9272ft 119kts
23-Dec-17 18:41 34.231927 -117.049828 76 8842ft 116kts
23-Dec-17 18:42 34.237162 -117.011688 78 8456ft 115kts
23-Dec-17 18:43 34.243574 -116.973816 76 8131ft 114kts
23-Dec-17 18:44 34.249263 -116.937938 80 8087ft 108kts
23-Dec-17 18:45 34.253374 -116.902141 81 8048ft 105kts
23-Dec-17 18:46 34.253490 -116.867245 89 8100ft 103kts
23-Dec-17 18:47 34.252608 -116.833561 88 7890ft 96kts
23-Dec-17 18:48 34.264338 -116.827962 263 7315ft 76kts
23-Dec-17 18:49 34.263816 -116.851182 269 6757ft 64kts
23-Dec-17 18:50 34.263388 -116.859097 177 6751ft 5kts
23-Dec-17 18:51 34.263254 -116.858335 90 6751ft 10kts
23-Dec-17 18:52 34.263103 -116.854552 154 6751ft 6kts
23-Dec-17 18:53 34.262737 -116.854520 180 6751ft 0kts
23-Dec-17 18:54 34.262737 -116.854520 180 6751ft 0kts
23-Dec-17 18:55 34.262737 -116.854520 180 6751ft 0kts

Navigation Log

Ident Type
Flight plan parsing failed, navigation log unavailable